Forside
METAR-TAF:

METAR-TAF

Lufthavne :

Larnaca Internationale Lufthavn

Larnaca, Cypern

Breddekreds: 34-53N, længdekreds: 033-38E, højde: 2 m

Aktuelle vejr

Denne rapport blev lavet for 21 minutter siden, kl. 16:30 UTC
Vind 4 kt fra vestnordvest, varierende mellem vest og nordnordvest
Temperatur 25°C
Fugtighed 61%
Tryk 1014 hPa
Sigt 10 km eller mere
Nogle få skyer i en højde af 3500 ft
Spredte skyer i en højde af 4500 ft

METAR: LCLK 161630Z 30004KT 260V340 9999 FEW035 SCT045 25/17 Q1014 NOSIG

Tid: 19:51 (16:51 UTC)

Vejrudsigter

Denne rapport blev lavet for 5 timer og 21 minutter siden, kl. 11:30 UTC
Foreløbig gælder fra 16 på 12 UTC til 17 på 12 UTC
Vind 12 kt fra sydsydvest
Sigt 10 km eller mere
Nogle få skyer i en højde af 2500 ft
ændring
fra 16 på 15 UTC til 16 på 18 UTC
Vind 7 kt fra nordvest
ændring
fra 17 på 10 UTC til 17 på 12 UTC
Vind 12 kt fra sydsydvest

TAF: LCLK 161130Z 1612/1712 21012KT 9999 FEW025 BECMG 1615/1618 31007KT BECMG 1710/1712 21012KT

Vejrobservationer og prognoser fra mere end 4000 lufthavne (METAR og TAF).

De gule og røde prikker repræsenterer de meteorologiske stationer.

Flyt musen over at se navnet på stationen.

Så klik over at se vejr observationer og prognoser.

At skifte det kort: Klik på de grønne knapper med et sort kors for at zoome ind; på den grønne knap med en bindestreg for at zoome ud; eller på de grønne pile for tilstødende kort.


METAR-TAF: